Time;durP1;ratioP1;P1;durP2;ratioP2;P2;SDS_P1;SDS_P2;PMS_P1;PMS_P2;Temp;Humidity;BMP_temperature;BMP_pressure;BME280_temperature;BME280_humidity;BME280_pressure;Samples;Min_cycle;Max_cycle;Signal;HPM_P1;HPM_P2
2023/03/28 00:01:45;;;;;;;4.57;1.60;;;0.40;99.90;;;;;;4973461;28;20237;-77
2023/03/28 00:04:12;;;;;;;8.13;1.60;;;0.30;99.90;;;;;;4971361;28;20314;-75
2023/03/28 00:06:44;;;;;;;6.33;1.50;;;0.30;99.90;;;;;;4977889;28;20231;-76
2023/03/28 00:09:11;;;;;;;4.97;1.53;;;0.30;99.90;;;;;;4978744;28;20783;-75
2023/03/28 00:11:37;;;;;;;4.90;1.10;;;0.30;99.90;;;;;;4979255;28;20781;-76
2023/03/28 00:14:07;;;;;;;5.03;1.50;;;0.20;99.90;;;;;;4976840;28;20230;-76
2023/03/28 00:16:36;;;;;;;7.53;1.57;;;0.20;99.90;;;;;;4978907;28;20326;-76
2023/03/28 00:19:05;;;;;;;9.67;1.60;;;0.20;99.90;;;;;;4973581;28;20241;-77
2023/03/28 00:21:34;;;;;;;3.60;1.17;;;0.20;99.90;;;;;;4978233;28;20228;-76
2023/03/28 00:24:04;;;;;;;7.63;1.57;;;0.20;99.90;;;;;;4978487;28;20230;-75
2023/03/28 00:26:34;;;;;;;6.27;1.30;;;0.10;99.90;;;;;;4979332;28;20254;-77
2023/03/28 00:29:02;;;;;;;5.27;1.13;;;0.10;99.90;;;;;;4979147;28;20232;-77
2023/03/28 00:31:30;;;;;;;3.23;0.90;;;0.10;99.90;;;;;;4979961;28;20224;-77
2023/03/28 00:33:58;;;;;;;6.33;1.43;;;0.10;99.90;;;;;;4974558;28;20238;-77
2023/03/28 00:36:28;;;;;;;6.50;1.20;;;0.10;99.90;;;;;;4975689;28;20311;-75
2023/03/28 00:38:56;;;;;;;4.97;0.97;;;0.00;99.90;;;;;;4970798;28;20224;-76
2023/03/28 00:41:29;;;;;;;7.10;1.40;;;0.00;99.90;;;;;;4980389;28;20320;-75
2023/03/28 00:43:57;;;;;;;2.43;1.00;;;0.00;99.90;;;;;;4974743;28;20322;-76
2023/03/28 00:46:28;;;;;;;5.90;1.50;;;0.00;99.90;;;;;;4975143;28;20366;-77
2023/03/28 00:48:59;;;;;;;5.33;1.13;;;-0.10;99.90;;;;;;4975599;28;20218;-76
2023/03/28 00:51:30;;;;;;;3.77;1.13;;;-0.10;99.90;;;;;;4977490;28;20335;-77
2023/03/28 00:53:59;;;;;;;9.40;1.53;;;-0.10;99.90;;;;;;4973959;28;20222;-77
2023/03/28 00:56:32;;;;;;;6.50;1.23;;;-0.10;99.90;;;;;;4974873;28;20228;-75
2023/03/28 00:59:05;;;;;;;6.90;1.20;;;-0.20;99.90;;;;;;4978812;28;20223;-77
2023/03/28 01:01:32;;;;;;;4.50;1.20;;;-0.20;99.90;;;;;;4980375;28;20231;-77
2023/03/28 01:04:01;;;;;;;4.40;1.10;;;-0.20;99.90;;;;;;4977335;28;20250;-77
2023/03/28 01:06:31;;;;;;;5.67;1.83;;;-0.30;99.90;;;;;;4971564;28;20872;-77
2023/03/28 01:09:01;;;;;;;4.70;1.10;;;-0.30;99.90;;;;;;4973208;28;20227;-77
2023/03/28 01:11:29;;;;;;;4.70;1.03;;;-0.30;99.90;;;;;;4979326;28;20225;-76
2023/03/28 01:14:01;;;;;;;2.77;1.03;;;-0.40;99.90;;;;;;4974008;28;20840;-75
2023/03/28 01:16:30;;;;;;;7.07;1.90;;;-0.40;99.90;;;;;;4979025;28;20779;-77
2023/03/28 01:19:01;;;;;;;9.37;1.20;;;-0.40;99.90;;;;;;4979642;28;20724;-77
2023/03/28 01:21:59;;;;;;;3.40;1.00;;;-0.50;99.90;;;;;;4976796;28;20226;-77
2023/03/28 01:24:59;;;;;;;3.37;1.00;;;-0.50;99.90;;;;;;4978262;28;21117;-76
2023/03/28 01:27:31;;;;;;;6.10;0.93;;;-0.50;99.90;;;;;;4980165;28;20772;-77
2023/03/28 01:30:32;;;;;;;5.37;1.47;;;-0.60;99.90;;;;;;4982101;28;20214;-77
2023/03/28 01:33:47;;;;;;;3.10;0.90;;;-0.60;99.90;;;;;;4978537;28;20717;-76
2023/03/28 01:37:02;;;;;;;6.67;1.00;;;-0.70;99.90;;;;;;4976136;28;20301;-77
2023/03/28 01:39:54;;;;;;;3.60;0.80;;;-0.70;99.90;;;;;;4977515;28;20244;-75
2023/03/28 01:42:31;;;;;;;5.23;1.00;;;-0.70;99.90;;;;;;4978651;28;20791;-77
2023/03/28 01:45:09;;;;;;;3.93;1.17;;;-0.80;99.90;;;;;;4979200;28;21044;-77
2023/03/28 01:47:41;;;;;;;6.67;1.17;;;-0.80;99.90;;;;;;4979618;28;20216;-77
2023/03/28 01:50:17;;;;;;;3.17;1.17;;;-0.90;99.90;;;;;;4981495;28;20270;-76
2023/03/28 01:52:51;;;;;;;4.63;0.90;;;-0.90;99.90;;;;;;4976334;28;20242;-77
2023/03/28 01:55:23;;;;;;;3.73;1.00;;;-1.00;99.90;;;;;;4978730;28;20229;-75
2023/03/28 01:57:55;;;;;;;2.70;0.80;;;-1.00;99.90;;;;;;4982799;28;20306;-76
2023/03/28 02:00:28;;;;;;;5.20;1.03;;;-1.00;99.90;;;;;;4981477;28;20225;-76
2023/03/28 02:03:13;;;;;;;4.00;1.00;;;-1.10;99.90;;;;;;4982126;28;20222;-75
2023/03/28 02:05:53;;;;;;;6.43;1.30;;;-1.10;99.90;;;;;;4973571;28;20246;-76
2023/03/28 02:08:24;;;;;;;2.03;0.80;;;-1.10;99.90;;;;;;4976665;28;20222;-76
2023/03/28 02:11:09;;;;;;;3.57;0.70;;;-1.20;99.90;;;;;;4980835;28;20213;-76
2023/03/28 02:13:47;;;;;;;3.60;0.80;;;-1.20;99.90;;;;;;4982421;28;20225;-75
2023/03/28 02:16:37;;;;;;;2.17;0.80;;;-1.20;99.90;;;;;;4978984;28;20835;-76
2023/03/28 02:19:24;;;;;;;3.47;0.80;;;-1.20;99.90;;;;;;4981068;28;20312;-75
2023/03/28 02:22:15;;;;;;;4.57;1.00;;;-1.30;99.90;;;;;;4981318;28;21031;-75
2023/03/28 02:25:03;;;;;;;2.47;0.90;;;-1.30;99.90;;;;;;4977163;28;20234;-76
2023/03/28 02:27:58;;;;;;;2.97;0.97;;;-1.30;99.90;;;;;;4978713;28;20229;-75
2023/03/28 02:30:39;;;;;;;1.73;0.70;;;-1.40;99.90;;;;;;4981207;28;20233;-77
2023/03/28 02:33:29;;;;;;;1.87;0.70;;;-1.40;99.90;;;;;;4980264;28;20274;-77
2023/03/28 02:36:05;;;;;;;5.30;0.87;;;-1.40;99.90;;;;;;4976597;28;20218;-74
2023/03/28 02:38:40;;;;;;;2.03;0.77;;;-1.50;99.90;;;;;;4982786;28;20248;-76
2023/03/28 02:41:19;;;;;;;1.77;0.90;;;-1.50;99.90;;;;;;4981180;28;20232;-75
2023/03/28 02:43:58;;;;;;;1.47;1.07;;;-1.50;99.90;;;;;;4976344;28;20321;-76
2023/03/28 02:46:30;;;;;;;3.70;0.60;;;-1.50;99.90;;;;;;4976760;28;20913;-75
2023/03/28 02:49:30;;;;;;;2.63;0.90;;;-1.60;99.90;;;;;;4974738;28;20226;-76
2023/03/28 02:52:08;;;;;;;2.80;0.83;;;-1.60;99.90;;;;;;4978009;28;20232;-76
2023/03/28 02:54:37;;;;;;;2.67;0.70;;;-1.60;99.90;;;;;;4975935;28;20233;-75
2023/03/28 02:57:37;;;;;;;3.47;0.60;;;-1.60;99.90;;;;;;4974443;28;20238;-75
2023/03/28 03:00:10;;;;;;;3.47;0.80;;;-1.70;99.90;;;;;;4978246;28;20269;-76
2023/03/28 03:02:37;;;;;;;3.33;0.73;;;-1.80;99.90;;;;;;4977265;28;20317;-76
2023/03/28 03:05:04;;;;;;;3.77;0.90;;;-1.80;99.90;;;;;;4976907;28;20936;-76
2023/03/28 03:07:31;;;;;;;4.73;1.00;;;-1.80;99.90;;;;;;4978590;28;20229;-76
2023/03/28 03:09:59;;;;;;;2.50;0.80;;;-1.80;99.90;;;;;;4976257;28;20315;-76
2023/03/28 03:12:26;;;;;;;4.23;0.93;;;-1.90;99.90;;;;;;4980200;28;20359;-75
2023/03/28 03:14:59;;;;;;;5.57;0.80;;;-1.90;99.90;;;;;;4978664;28;20230;-76
2023/03/28 03:17:45;;;;;;;3.40;0.97;;;-1.90;99.90;;;;;;4978497;28;20919;-76
2023/03/28 03:20:13;;;;;;;2.90;0.70;;;-2.00;99.90;;;;;;4978024;28;20310;-76
2023/03/28 03:22:40;;;;;;;1.30;0.80;;;-2.00;99.90;;;;;;4980712;28;20327;-77
2023/03/28 03:25:08;;;;;;;3.60;0.93;;;-2.00;99.90;;;;;;4974250;28;20792;-76
2023/03/28 03:27:45;;;;;;;3.47;1.10;;;-2.10;99.90;;;;;;4975420;28;20225;-76
2023/03/28 03:30:13;;;;;;;3.70;1.00;;;-2.10;99.90;;;;;;4981572;28;20735;-76
2023/03/28 03:33:04;;;;;;;3.20;1.00;;;-2.10;99.90;;;;;;4978119;28;20224;-76
2023/03/28 03:35:32;;;;;;;1.07;0.77;;;-2.10;99.90;;;;;;4973106;28;20239;-77
2023/03/28 03:38:02;;;;;;;2.30;0.80;;;-2.20;99.90;;;;;;4978748;28;20226;-76
2023/03/28 03:40:29;;;;;;;3.33;1.10;;;-2.20;99.90;;;;;;4980672;28;20304;-75
2023/03/28 03:42:56;;;;;;;2.33;0.90;;;-2.20;99.90;;;;;;4978681;28;20257;-79
2023/03/28 03:45:24;;;;;;;2.80;0.90;;;-2.20;99.90;;;;;;4974511;28;20874;-78
2023/03/28 03:47:51;;;;;;;2.07;0.80;;;-2.30;99.90;;;;;;4979657;28;20225;-79
2023/03/28 03:50:18;;;;;;;3.03;1.00;;;-2.30;99.90;;;;;;4981033;28;20806;-78
2023/03/28 03:52:45;;;;;;;3.93;1.20;;;-2.30;99.90;;;;;;4977516;28;20235;-81
2023/03/28 03:55:13;;;;;;;3.93;0.90;;;-2.30;99.90;;;;;;4971983;28;20931;-78
2023/03/28 03:57:41;;;;;;;1.90;0.90;;;-2.30;99.90;;;;;;4977499;28;20763;-79
2023/03/28 04:00:10;;;;;;;3.63;1.07;;;-2.40;99.90;;;;;;4979433;28;20230;-78
2023/03/28 04:02:48;;;;;;;1.53;0.70;;;-2.40;99.90;;;;;;4977493;28;20237;-80
2023/03/28 04:05:21;;;;;;;2.97;1.10;;;-2.40;99.90;;;;;;4978275;28;20236;-79
2023/03/28 04:08:00;;;;;;;2.07;1.10;;;-2.40;99.90;;;;;;4976621;28;20217;-77
2023/03/28 04:10:32;;;;;;;3.60;1.60;;;-2.50;99.90;;;;;;4979252;28;22083;-78
2023/03/28 04:12:59;;;;;;;2.07;1.20;;;-2.50;99.90;;;;;;4980244;28;20256;-77
2023/03/28 04:15:26;;;;;;;4.60;1.10;;;-2.50;99.90;;;;;;4980759;28;20223;-79
2023/03/28 04:18:21;;;;;;;1.87;1.00;;;-2.50;99.90;;;;;;4978034;28;20244;-79
2023/03/28 04:20:53;;;;;;;2.47;1.00;;;-2.50;99.90;;;;;;4972132;28;20315;-78
2023/03/28 04:23:37;;;;;;;2.60;1.10;;;-2.50;99.90;;;;;;4981034;28;20693;-77
2023/03/28 04:26:07;;;;;;;3.43;1.30;;;-2.50;99.90;;;;;;4979163;28;20751;-77
2023/03/28 04:28:50;;;;;;;2.60;0.90;;;-2.60;99.90;;;;;;4971042;28;20939;-78
2023/03/28 04:31:17;;;;;;;4.13;1.03;;;-2.60;99.90;;;;;;4981470;28;20221;-78
2023/03/28 04:34:09;;;;;;;2.33;1.00;;;-2.60;99.90;;;;;;4980214;28;20748;-78
2023/03/28 04:36:44;;;;;;;4.53;1.10;;;-2.60;99.90;;;;;;4973740;28;20227;-76
2023/03/28 04:39:12;;;;;;;1.47;0.97;;;-2.70;99.90;;;;;;4980422;28;20235;-80
2023/03/28 04:42:00;;;;;;;3.67;0.93;;;-2.70;99.90;;;;;;4973203;28;20223;-79
2023/03/28 04:44:53;;;;;;;4.33;1.23;;;-2.70;99.90;;;;;;4947172;28;20271;-79
2023/03/28 04:47:20;;;;;;;12.30;3.10;;;-2.70;99.90;;;;;;4973485;28;20295;-79
2023/03/28 04:49:49;;;;;;;3.20;1.50;;;-2.80;99.90;;;;;;4993779;28;20244;-79
2023/03/28 04:52:16;;;;;;;2.17;1.03;;;-2.80;99.90;;;;;;4973681;28;20334;-80
2023/03/28 04:54:45;;;;;;;2.43;1.83;;;-2.80;99.90;;;;;;4976780;28;20245;-78
2023/03/28 04:57:15;;;;;;;4.37;1.30;;;-2.80;99.90;;;;;;4972956;28;20276;-78
2023/03/28 04:59:45;;;;;;;1.67;1.30;;;-2.70;99.90;;;;;;4973725;28;20228;-79
2023/03/28 05:02:21;;;;;;;3.23;1.50;;;-2.70;99.90;;;;;;4976142;28;20233;-79
2023/03/28 05:05:00;;;;;;;4.40;1.40;;;-2.70;99.90;;;;;;4975747;28;20225;-79
2023/03/28 05:07:28;;;;;;;4.20;1.50;;;-2.70;99.90;;;;;;4982160;28;20229;-79
2023/03/28 05:09:55;;;;;;;2.30;1.27;;;-2.70;99.90;;;;;;4983903;28;20229;-80
2023/03/28 05:12:22;;;;;;;4.73;1.80;;;-2.60;99.90;;;;;;4976940;28;20820;-78
2023/03/28 05:14:58;;;;;;;3.27;1.70;;;-2.60;99.90;;;;;;4979310;28;20218;-78
2023/03/28 05:17:25;;;;;;;1.57;1.40;;;-2.60;99.90;;;;;;4980110;28;20271;-79
2023/03/28 05:20:09;;;;;;;4.03;1.30;;;-2.50;99.90;;;;;;4978239;28;20745;-80
2023/03/28 05:22:46;;;;;;;2.80;1.10;;;-2.50;99.90;;;;;;4980818;28;20244;-79
2023/03/28 05:25:14;;;;;;;3.83;1.30;;;-2.40;99.90;;;;;;4977342;28;20243;-79
2023/03/28 05:27:41;;;;;;;3.20;1.40;;;-2.40;99.90;;;;;;4985832;28;20283;-78
2023/03/28 05:30:09;;;;;;;3.80;1.60;;;-2.30;99.90;;;;;;4973566;28;20285;-80
2023/03/28 05:32:37;;;;;;;8.83;5.00;;;-2.20;99.90;;;;;;4977876;28;20242;-79
2023/03/28 05:35:06;;;;;;;6.87;3.10;;;-2.10;99.90;;;;;;4973549;28;20317;-79
2023/03/28 05:37:35;;;;;;;3.93;2.10;;;-2.10;99.90;;;;;;4983920;28;20237;-79
2023/03/28 05:40:05;;;;;;;4.30;2.63;;;-1.90;99.90;;;;;;4972021;28;20238;-80
2023/03/28 05:42:32;;;;;;;8.67;5.43;;;-1.80;99.90;;;;;;4981446;28;20245;-78
2023/03/28 05:45:04;;;;;;;15.73;9.30;;;-1.70;99.90;;;;;;4981801;28;20230;-79
2023/03/28 05:47:34;;;;;;;18.93;12.40;;;-1.60;99.90;;;;;;4977491;28;20281;-78
2023/03/28 05:50:01;;;;;;;10.27;7.50;;;-1.40;99.90;;;;;;4979874;28;20257;-79
2023/03/28 05:52:28;;;;;;;9.87;6.93;;;-1.20;99.90;;;;;;4971448;28;20232;-80
2023/03/28 05:54:56;;;;;;;6.10;3.00;;;-1.00;99.90;;;;;;4984340;28;20875;-78
2023/03/28 05:57:24;;;;;;;4.43;1.90;;;-0.90;99.90;;;;;;4979937;28;20231;-80
2023/03/28 05:59:52;;;;;;;2.90;1.80;;;-0.70;99.90;;;;;;4981253;28;20231;-79
2023/03/28 06:02:23;;;;;;;4.50;1.80;;;-0.60;99.90;;;;;;4963719;28;20238;-81
2023/03/28 06:04:52;;;;;;;3.53;2.30;;;-0.50;99.90;;;;;;4981391;28;20646;-78
2023/03/28 06:07:19;;;;;;;3.93;1.80;;;-0.40;99.90;;;;;;4976746;28;20312;-79
2023/03/28 06:09:46;;;;;;;2.27;1.67;;;-0.30;99.90;;;;;;4978473;28;20233;-78
2023/03/28 06:12:15;;;;;;;2.13;1.33;;;-0.20;99.90;;;;;;4981419;28;21556;-78
2023/03/28 06:14:48;;;;;;;2.00;1.30;;;-0.10;99.90;;;;;;4981269;28;20234;-78
2023/03/28 06:17:25;;;;;;;2.97;1.57;;;0.00;99.90;;;;;;4982310;28;20231;-79
2023/03/28 06:19:56;;;;;;;2.70;1.50;;;0.10;99.90;;;;;;4979771;28;20238;-79
2023/03/28 06:22:23;;;;;;;5.60;1.70;;;0.20;99.90;;;;;;4981861;28;20822;-79
2023/03/28 06:24:55;;;;;;;5.33;1.73;;;0.20;99.90;;;;;;4979530;28;20228;-80
2023/03/28 06:27:29;;;;;;;6.80;2.80;;;0.20;99.90;;;;;;4981425;28;20276;-78
2023/03/28 06:29:58;;;;;;;9.67;3.50;;;0.30;99.90;;;;;;4976896;28;20228;-79
2023/03/28 06:32:25;;;;;;;3.33;1.80;;;0.50;99.90;;;;;;4983734;28;20258;-79
2023/03/28 06:34:51;;;;;;;7.17;3.73;;;0.70;99.90;;;;;;4981222;28;20733;-78
2023/03/28 06:37:19;;;;;;;9.57;2.80;;;0.90;99.90;;;;;;4983564;28;20230;-79
2023/03/28 06:40:04;;;;;;;5.03;1.90;;;1.20;99.90;;;;;;4996710;28;20222;-79
2023/03/28 06:42:32;;;;;;;4.40;1.83;;;1.50;99.90;;;;;;4979130;28;20241;-78
2023/03/28 06:45:18;;;;;;;4.93;2.00;;;1.70;99.90;;;;;;4978571;28;20231;-80
2023/03/28 06:47:53;;;;;;;5.07;1.90;;;2.00;99.90;;;;;;4980814;28;20261;-79
2023/03/28 06:50:27;;;;;;;8.43;2.10;;;2.10;99.90;;;;;;4985170;28;20243;-80
2023/03/28 06:52:57;;;;;;;3.60;1.77;;;2.20;99.90;;;;;;4984464;28;20218;-79
2023/03/28 06:55:25;;;;;;;3.43;1.57;;;2.30;99.90;;;;;;4977720;28;20230;-78
2023/03/28 06:57:53;;;;;;;4.13;2.20;;;2.40;99.90;;;;;;4980444;28;20238;-79
2023/03/28 07:00:26;;;;;;;7.57;2.40;;;2.40;99.90;;;;;;4973641;28;20240;-79
2023/03/28 07:03:11;;;;;;;4.80;2.23;;;2.40;99.90;;;;;;4980732;28;20284;-79
2023/03/28 07:05:39;;;;;;;4.93;2.60;;;2.40;99.90;;;;;;4983179;28;20250;-79
2023/03/28 07:08:06;;;;;;;6.53;2.70;;;2.50;99.90;;;;;;4980767;28;20344;-78
2023/03/28 07:10:33;;;;;;;8.90;2.03;;;2.50;99.90;;;;;;4980997;28;20238;-78
2023/03/28 07:13:01;;;;;;;8.00;2.20;;;2.50;99.90;;;;;;4979766;28;20223;-79
2023/03/28 07:15:28;;;;;;;7.17;2.20;;;2.50;99.90;;;;;;4981638;28;20233;-80
2023/03/28 07:17:55;;;;;;;5.33;2.27;;;2.50;99.90;;;;;;4983570;28;20257;-78
2023/03/28 07:20:23;;;;;;;10.53;3.77;;;2.50;99.90;;;;;;4981919;28;20245;-78
2023/03/28 07:22:50;;;;;;;8.60;2.37;;;2.60;99.90;;;;;;4983740;28;20282;-78
2023/03/28 07:25:18;;;;;;;7.93;1.70;;;2.60;99.90;;;;;;4981034;28;20290;-78
2023/03/28 07:27:46;;;;;;;8.93;1.93;;;2.70;99.90;;;;;;4980789;28;20234;-79
2023/03/28 07:30:15;;;;;;;5.50;2.07;;;2.80;99.90;;;;;;4980156;28;20593;-78
2023/03/28 07:32:42;;;;;;;6.00;1.87;;;2.90;99.90;;;;;;4981894;28;20268;-79
2023/03/28 07:35:10;;;;;;;6.77;2.00;;;3.00;99.90;;;;;;4993227;28;20233;-79
2023/03/28 07:37:45;;;;;;;4.73;2.03;;;3.10;99.90;;;;;;4983266;28;20278;-79
2023/03/28 07:40:27;;;;;;;7.23;1.90;;;3.20;99.90;;;;;;4979134;28;20300;-78
2023/03/28 07:42:54;;;;;;;6.17;1.63;;;3.30;99.90;;;;;;4977084;28;20249;-79
2023/03/28 07:45:22;;;;;;;8.83;1.90;;;3.30;99.90;;;;;;4977814;28;20312;-78
2023/03/28 07:47:49;;;;;;;7.80;2.07;;;3.40;99.90;;;;;;4979956;28;20317;-78
2023/03/28 07:50:16;;;;;;;6.87;2.00;;;3.40;99.90;;;;;;4977643;28;20236;-79
2023/03/28 07:52:44;;;;;;;7.73;1.83;;;3.50;99.90;;;;;;4984451;28;20280;-79
2023/03/28 07:55:12;;;;;;;7.03;1.83;;;3.50;99.90;;;;;;4979656;28;20729;-79
2023/03/28 07:57:41;;;;;;;8.20;1.70;;;3.70;99.90;;;;;;4978204;28;20228;-79
2023/03/28 08:00:29;;;;;;;8.07;2.00;;;4.10;99.90;;;;;;4980605;28;20719;-79
2023/03/28 08:03:17;;;;;;;7.13;2.50;;;4.60;99.90;;;;;;4982381;28;20237;-79
2023/03/28 08:05:50;;;;;;;6.70;1.90;;;5.20;99.90;;;;;;4982470;28;20305;-80
2023/03/28 08:08:17;;;;;;;5.23;1.77;;;5.70;99.90;;;;;;4982793;28;20326;-80
2023/03/28 08:10:45;;;;;;;6.37;1.50;;;6.30;99.90;;;;;;4982381;28;20231;-79
2023/03/28 08:13:12;;;;;;;5.97;1.40;;;6.80;99.90;;;;;;4980301;28;20249;-80
2023/03/28 08:15:41;;;;;;;4.03;1.60;;;7.30;99.90;;;;;;4978071;28;20669;-79
2023/03/28 08:18:07;;;;;;;7.83;2.53;;;7.70;99.90;;;;;;4976835;28;20229;-80
2023/03/28 08:20:36;;;;;;;10.17;1.67;;;8.10;99.90;;;;;;4980636;28;20233;-79
2023/03/28 08:23:10;;;;;;;3.37;1.60;;;8.40;99.90;;;;;;4977913;28;20662;-80
2023/03/28 08:25:43;;;;;;;4.40;1.20;;;8.70;99.90;;;;;;4977769;28;20595;-79
2023/03/28 08:28:11;;;;;;;6.90;1.60;;;8.80;99.90;;;;;;4978227;28;20602;-79
2023/03/28 08:30:39;;;;;;;5.60;1.50;;;9.00;99.90;;;;;;4982263;28;20315;-79
2023/03/28 08:33:06;;;;;;;7.00;1.40;;;9.20;99.90;;;;;;4978383;28;20871;-79
2023/03/28 08:35:33;;;;;;;7.57;1.97;;;9.60;99.90;;;;;;4994535;28;20226;-79
2023/03/28 08:38:05;;;;;;;5.83;1.33;;;10.10;99.90;;;;;;4983516;28;20278;-80
2023/03/28 08:40:32;;;;;;;7.73;1.40;;;10.70;99.90;;;;;;4979857;28;20450;-79
2023/03/28 08:43:20;;;;;;;4.87;1.60;;;11.10;99.90;;;;;;4983112;28;20234;-79
2023/03/28 08:45:51;;;;;;;3.63;1.00;;;11.40;99.60;;;;;;4986422;28;20241;-79
2023/03/28 08:48:24;;;;;;;5.73;1.60;;;11.70;98.60;;;;;;4977957;28;20647;-78
2023/03/28 08:50:55;;;;;;;7.27;1.57;;;11.90;98.90;;;;;;4982477;28;20234;-79
2023/03/28 08:53:29;;;;;;;4.00;1.30;;;12.10;99.00;;;;;;4978908;28;20281;-78
2023/03/28 08:55:57;;;;;;;5.00;1.30;;;12.30;96.70;;;;;;4979565;28;20297;-79
2023/03/28 08:58:26;;;;;;;2.83;1.23;;;12.50;96.80;;;;;;4980496;28;20337;-79
2023/03/28 09:00:54;;;;;;;4.23;1.30;;;12.60;96.70;;;;;;4982422;28;20235;-79
2023/03/28 09:03:22;;;;;;;6.10;1.40;;;12.70;95.50;;;;;;4976501;28;20784;-78
2023/03/28 09:06:00;;;;;;;5.47;1.40;;;12.60;94.70;;;;;;4974027;28;20303;-79
2023/03/28 09:08:41;;;;;;;6.87;1.17;;;12.60;94.80;;;;;;4980552;28;20235;-80
2023/03/28 09:11:21;;;;;;;3.70;1.40;;;12.60;93.80;;;;;;4979402;28;20234;-78
2023/03/28 09:14:00;;;;;;;6.27;1.20;;;12.50;93.30;;;;;;4979626;28;20230;-79
2023/03/28 09:16:40;;;;;;;7.83;1.50;;;12.50;94.40;;;;;;4982091;28;20225;-78
2023/03/28 09:19:33;;;;;;;3.67;1.13;;;12.60;94.20;;;;;;4981265;28;20253;-79
2023/03/28 09:22:33;;;;;;;9.13;4.33;;;12.70;93.90;;;;;;4983568;28;20225;-79
2023/03/28 09:25:21;;;;;;;9.57;4.10;;;12.90;92.30;;;;;;4984675;28;20213;-79
2023/03/28 09:27:59;;;;;;;5.10;1.60;;;13.00;93.50;;;;;;4980593;28;20235;-79
2023/03/28 09:30:31;;;;;;;3.23;1.40;;;13.00;92.40;;;;;;4980855;28;20586;-79
2023/03/28 09:33:04;;;;;;;4.00;1.10;;;13.00;92.90;;;;;;4977909;28;20232;-79
2023/03/28 09:35:32;;;;;;;5.00;1.43;;;12.90;92.30;;;;;;4976647;28;20223;-79
2023/03/28 09:38:04;;;;;;;4.00;1.20;;;12.70;91.70;;;;;;4977434;28;20719;-79
2023/03/28 09:40:33;;;;;;;6.23;1.30;;;12.40;91.30;;;;;;4974083;28;20235;-79
2023/03/28 09:43:39;;;;;;;4.80;1.30;;;12.20;92.10;;;;;;4972331;28;20234;-79
2023/03/28 09:46:27;;;;;;;3.90;1.00;;;12.10;92.50;;;;;;4979520;28;20313;-79
2023/03/28 09:49:03;;;;;;;2.90;0.90;;;12.10;92.50;;;;;;4984762;28;20218;-79
2023/03/28 09:51:32;;;;;;;6.73;1.33;;;12.20;93.60;;;;;;4976246;28;20222;-78
2023/03/28 09:54:03;;;;;;;6.40;1.50;;;12.40;93.60;;;;;;4985216;28;20847;-79
2023/03/28 09:56:33;;;;;;;1.90;0.80;;;12.60;93.90;;;;;;4979958;28;20279;-79
2023/03/28 09:59:21;;;;;;;4.07;1.30;;;12.90;92.40;;;;;;4993165;28;20359;-79
2023/03/28 10:01:50;;;;;;;6.57;1.30;;;13.10;91.50;;;;;;4984301;28;20225;-79
2023/03/28 10:04:36;;;;;;;3.97;1.40;;;13.20;91.20;;;;;;4975400;28;20235;-80
2023/03/28 10:07:42;;;;;;;5.70;1.40;;;13.30;91.80;;;;;;4980132;28;20255;-79
2023/03/28 10:10:20;;;;;;;3.70;1.30;;;13.40;90.80;;;;;;4978455;28;20225;-79
2023/03/28 10:12:55;;;;;;;4.97;1.30;;;13.40;90.60;;;;;;4976601;28;20396;-80
2023/03/28 10:15:34;;;;;;;5.90;1.47;;;13.20;91.20;;;;;;4977525;28;20260;-80
2023/03/28 10:18:21;;;;;;;5.73;1.50;;;12.90;89.60;;;;;;4978472;28;20239;-80
2023/03/28 10:21:14;;;;;;;4.73;1.10;;;12.50;90.10;;;;;;4981659;28;20285;-79
2023/03/28 10:23:49;;;;;;;5.00;1.40;;;12.20;90.30;;;;;;4975079;28;20587;-81
2023/03/28 10:26:22;;;;;;;3.67;1.30;;;11.80;90.80;;;;;;4981921;28;20273;-79
2023/03/28 10:28:52;;;;;;;6.27;1.50;;;11.50;90.60;;;;;;4979769;28;20224;-80
2023/03/28 10:31:27;;;;;;;5.57;1.70;;;11.30;91.20;;;;;;4978791;28;20582;-80
2023/03/28 10:33:58;;;;;;;6.83;1.50;;;11.00;91.20;;;;;;4984422;28;20243;-80
2023/03/28 10:36:46;;;;;;;6.77;1.60;;;10.80;90.50;;;;;;4975174;28;20248;-82
2023/03/28 10:39:23;;;;;;;5.93;1.50;;;10.50;91.00;;;;;;4976952;28;20720;-79
2023/03/28 10:42:10;;;;;;;8.07;1.90;;;10.20;91.50;;;;;;4959268;28;20319;-79
2023/03/28 10:45:00;;;;;;;6.77;1.50;;;9.90;91.70;;;;;;4982026;28;20218;-80
2023/03/28 10:47:29;;;;;;;4.00;1.60;;;9.60;91.50;;;;;;4981724;28;20224;-80
2023/03/28 10:50:03;;;;;;;6.77;1.90;;;9.40;92.30;;;;;;4987189;28;20755;-80
2023/03/28 10:52:40;;;;;;;6.47;2.13;;;9.10;92.70;;;;;;4984724;28;20236;-78
2023/03/28 10:55:13;;;;;;;5.87;1.50;;;8.90;92.70;;;;;;4984357;28;20782;-79
2023/03/28 10:58:03;;;;;;;6.23;1.47;;;8.80;93.00;;;;;;4983409;28;20244;-79
2023/03/28 11:00:41;;;;;;;4.73;1.03;;;8.70;93.30;;;;;;4975742;28;20224;-80
2023/03/28 11:03:15;;;;;;;4.67;1.30;;;8.60;93.50;;;;;;4977596;28;20225;-79
2023/03/28 11:05:51;;;;;;;5.77;1.40;;;8.60;93.80;;;;;;4977726;28;20731;-79
2023/03/28 11:08:35;;;;;;;6.30;1.23;;;8.60;94.40;;;;;;4979790;28;20757;-80
2023/03/28 11:11:20;;;;;;;5.60;1.33;;;8.60;94.50;;;;;;4975785;28;20910;-79
2023/03/28 11:14:02;;;;;;;5.60;1.33;;;8.70;94.60;;;;;;4985363;28;20310;-79
2023/03/28 11:16:40;;;;;;;3.63;1.20;;;8.80;95.10;;;;;;4997042;28;20763;-80
2023/03/28 11:19:38;;;;;;;6.83;1.43;;;9.00;95.10;;;;;;4985562;28;20232;-80
2023/03/28 11:22:15;;;;;;;5.50;1.50;;;9.10;94.60;;;;;;4978403;28;20229;-81
2023/03/28 11:24:53;;;;;;;5.53;1.17;;;9.30;94.50;;;;;;4983196;28;20226;-79
2023/03/28 11:27:38;;;;;;;4.67;1.50;;;9.40;93.60;;;;;;4991326;28;20305;-79
2023/03/28 11:30:33;;;;;;;5.73;1.50;;;9.50;93.50;;;;;;4979539;28;20234;-80
2023/03/28 11:33:28;;;;;;;5.00;1.10;;;9.50;93.20;;;;;;4981096;28;20293;-79
2023/03/28 11:36:06;;;;;;;4.60;1.10;;;9.60;93.10;;;;;;4999807;28;20700;-79
2023/03/28 11:38:36;;;;;;;3.87;1.03;;;9.60;92.40;;;;;;4982463;28;20284;-80
2023/03/28 11:41:09;;;;;;;4.57;1.00;;;9.60;92.20;;;;;;4976414;28;20228;-79
2023/03/28 11:44:00;;;;;;;3.73;1.10;;;9.70;92.40;;;;;;4982666;28;20420;-80
2023/03/28 11:46:30;;;;;;;5.07;1.23;;;10.00;92.50;;;;;;4983726;28;20225;-79
2023/03/28 11:49:10;;;;;;;4.47;1.10;;;10.20;92.50;;;;;;4978103;28;20226;-80
2023/03/28 11:51:44;;;;;;;4.50;1.00;;;10.40;92.30;;;;;;4978256;28;20226;-80
2023/03/28 11:54:16;;;;;;;5.23;1.00;;;10.70;92.50;;;;;;4981042;28;20227;-80
2023/03/28 11:56:51;;;;;;;4.10;1.10;;;11.10;92.30;;;;;;4981603;28;20313;-79
2023/03/28 11:59:36;;;;;;;3.73;1.07;;;11.50;92.10;;;;;;4974118;28;20244;-80
2023/03/28 12:02:10;;;;;;;5.63;1.10;;;11.80;91.00;;;;;;4977145;28;20304;-80
2023/03/28 12:04:43;;;;;;;2.67;0.87;;;12.10;90.70;;;;;;4979483;28;20232;-79
2023/03/28 12:07:16;;;;;;;6.00;1.33;;;12.20;90.50;;;;;;4978398;28;20451;-80
2023/03/28 12:09:58;;;;;;;2.97;1.10;;;12.40;90.30;;;;;;4994812;28;20621;-79
2023/03/28 12:12:31;;;;;;;3.73;0.90;;;12.50;89.50;;;;;;4984648;28;20247;-80
2023/03/28 12:15:04;;;;;;;3.50;1.10;;;12.50;88.20;;;;;;4983228;28;20233;-81
2023/03/28 12:17:52;;;;;;;2.90;0.83;;;12.40;87.90;;;;;;4979895;28;20240;-80
2023/03/28 12:20:28;;;;;;;6.00;1.47;;;12.30;88.50;;;;;;4980212;28;20243;-79
2023/03/28 12:23:00;;;;;;;3.73;1.20;;;12.20;88.80;;;;;;4979752;28;20255;-80
2023/03/28 12:26:00;;;;;;;7.17;1.30;;;12.10;88.30;;;;;;4979527;28;20221;-80
2023/03/28 12:28:36;;;;;;;7.10;1.43;;;12.00;89.00;;;;;;4978128;28;20218;-82
2023/03/28 12:31:09;;;;;;;4.80;1.10;;;11.90;89.00;;;;;;4981542;28;20222;-81
2023/03/28 12:33:44;;;;;;;3.87;1.27;;;11.80;89.60;;;;;;4980921;28;20222;-80
2023/03/28 12:36:39;;;;;;;3.53;1.20;;;11.70;88.60;;;;;;4980177;28;20245;-81
2023/03/28 12:39:33;;;;;;;4.17;1.10;;;11.70;88.90;;;;;;4984140;28;20242;-81
2023/03/28 12:42:03;;;;;;;6.67;1.60;;;11.60;87.10;;;;;;4980042;28;20381;-80
2023/03/28 12:44:40;;;;;;;2.83;1.20;;;11.50;89.10;;;;;;4976348;28;20230;-79
2023/03/28 12:47:11;;;;;;;4.93;1.50;;;11.30;90.20;;;;;;4983280;28;20276;-81
2023/03/28 12:49:45;;;;;;;4.97;1.30;;;11.10;90.40;;;;;;4978100;28;20282;-81
2023/03/28 12:52:19;;;;;;;6.10;1.43;;;10.80;90.70;;;;;;4984361;28;20220;-81
2023/03/28 12:54:56;;;;;;;6.20;1.70;;;10.60;91.10;;;;;;4992069;28;20222;-80
2023/03/28 12:57:45;;;;;;;4.60;1.77;;;10.30;91.10;;;;;;4982174;28;21287;-81
2023/03/28 13:00:27;;;;;;;4.37;1.60;;;10.10;91.70;;;;;;4980170;28;20225;-81
2023/03/28 13:03:29;;;;;;;5.30;1.23;;;10.00;91.80;;;;;;4983462;28;20637;-81
2023/03/28 13:05:58;;;;;;;5.33;1.50;;;9.80;91.90;;;;;;4980811;28;20227;-80
2023/03/28 13:08:40;;;;;;;6.43;1.47;;;9.60;92.00;;;;;;4976879;28;21302;-81
2023/03/28 13:11:12;;;;;;;6.90;1.43;;;9.50;92.10;;;;;;4985866;28;20334;-81
2023/03/28 13:13:48;;;;;;;3.93;1.43;;;9.40;92.70;;;;;;4979876;28;20838;-81
2023/03/28 13:16:23;;;;;;;4.13;1.30;;;9.20;93.00;;;;;;4984508;28;20231;-80
2023/03/28 13:19:05;;;;;;;5.87;1.60;;;9.10;93.00;;;;;;4986285;28;20305;-82
2023/03/28 13:21:42;;;;;;;5.87;1.13;;;8.90;92.90;;;;;;4982175;28;20602;-81
2023/03/28 13:24:28;;;;;;;2.87;1.23;;;8.80;93.10;;;;;;4989207;28;20222;-81
2023/03/28 13:26:57;;;;;;;6.67;1.30;;;8.70;93.10;;;;;;4988143;28;20248;-81
2023/03/28 13:29:24;;;;;;;5.10;1.50;;;8.60;93.10;;;;;;4985683;28;20264;-81
2023/03/28 13:32:05;;;;;;;3.90;1.20;;;8.50;93.40;;;;;;4987246;28;20228;-82